Time;durP1;ratioP1;P1;durP2;ratioP2;P2;SDS_P1;SDS_P2;PMS_P1;PMS_P2;Temp;Humidity;BMP_temperature;BMP_pressure;BME280_temperature;BME280_humidity;BME280_pressure;Samples;Min_cycle;Max_cycle;Signal;HPM_P1;HPM_P2
2021/05/02 00:00:34;;;;;;;8.20;5.32;;;9.70;99.90;;;;;;5053010;28;20036;-64
2021/05/02 00:03:01;;;;;;;6.60;4.65;;;9.70;99.90;;;;;;5060963;28;20033;-64
2021/05/02 00:05:29;;;;;;;7.45;5.43;;;9.70;99.90;;;;;;5046925;28;20104;-64
2021/05/02 00:07:56;;;;;;;7.57;5.18;;;9.80;99.90;;;;;;5046997;28;20089;-65
2021/05/02 00:10:23;;;;;;;6.78;5.00;;;9.80;99.90;;;;;;5048258;28;20406;-65
2021/05/02 00:12:50;;;;;;;5.95;4.65;;;9.70;99.90;;;;;;5047812;28;20068;-65
2021/05/02 00:15:19;;;;;;;5.82;4.50;;;9.70;99.90;;;;;;5048946;28;20083;-65
2021/05/02 00:17:46;;;;;;;5.55;4.13;;;9.80;99.90;;;;;;5048785;28;20071;-64
2021/05/02 00:20:15;;;;;;;4.95;4.45;;;9.80;99.90;;;;;;5048023;28;20055;-64
2021/05/02 00:22:46;;;;;;;5.85;4.72;;;9.80;99.90;;;;;;5065596;28;20103;-64
2021/05/02 00:25:15;;;;;;;4.95;4.05;;;9.90;99.90;;;;;;5068765;28;20050;-64
2021/05/02 00:27:42;;;;;;;5.45;4.30;;;10.10;99.90;;;;;;5067822;28;20055;-64
2021/05/02 00:30:11;;;;;;;7.57;4.78;;;10.10;99.90;;;;;;5068931;28;20558;-63
2021/05/02 00:32:38;;;;;;;6.55;4.95;;;10.10;99.90;;;;;;5068692;28;20028;-66
2021/05/02 00:35:04;;;;;;;6.35;4.97;;;10.10;99.90;;;;;;5066493;28;20029;-63
2021/05/02 00:37:30;;;;;;;6.07;4.40;;;10.10;99.90;;;;;;5067970;28;20060;-63
2021/05/02 00:39:56;;;;;;;4.80;3.83;;;10.10;99.90;;;;;;5065319;28;20060;-64
2021/05/02 00:42:25;;;;;;;6.40;4.90;;;10.10;99.90;;;;;;5048587;28;20056;-64
2021/05/02 00:45:01;;;;;;;6.55;5.03;;;10.10;99.90;;;;;;5069159;28;20495;-64
2021/05/02 00:47:35;;;;;;;7.72;5.05;;;10.10;99.90;;;;;;5068115;28;20063;-64
2021/05/02 00:50:10;;;;;;;6.28;4.85;;;10.00;99.90;;;;;;5068476;28;20021;-64
2021/05/02 00:53:02;;;;;;;6.20;4.88;;;10.00;99.90;;;;;;5068296;28;20056;-64
2021/05/02 00:55:33;;;;;;;7.97;5.90;;;10.00;99.90;;;;;;5068395;28;20028;-64
2021/05/02 00:58:05;;;;;;;6.85;5.18;;;10.00;99.90;;;;;;5068457;28;20026;-64
2021/05/02 01:00:38;;;;;;;7.30;5.75;;;10.00;99.90;;;;;;5068044;28;20067;-64
2021/05/02 01:03:06;;;;;;;7.30;5.72;;;10.00;99.90;;;;;;5068550;28;20029;-64
2021/05/02 01:05:33;;;;;;;7.35;5.60;;;10.00;99.90;;;;;;5067960;28;20021;-64
2021/05/02 01:08:01;;;;;;;6.70;5.28;;;9.90;99.90;;;;;;5068180;28;20028;-64
2021/05/02 01:10:28;;;;;;;7.05;5.50;;;9.80;99.90;;;;;;5067658;28;20123;-64
2021/05/02 01:12:56;;;;;;;6.53;5.03;;;9.70;99.90;;;;;;5068752;28;20033;-64
2021/05/02 01:15:26;;;;;;;7.05;5.45;;;9.80;99.90;;;;;;5068560;28;20020;-64
2021/05/02 01:17:57;;;;;;;7.47;5.03;;;9.90;99.90;;;;;;5068666;28;20025;-64
2021/05/02 01:20:23;;;;;;;6.93;5.25;;;9.90;99.90;;;;;;5068048;28;20029;-64
2021/05/02 01:22:52;;;;;;;7.57;5.85;;;9.80;99.90;;;;;;5068461;28;20028;-64
2021/05/02 01:25:19;;;;;;;5.55;4.88;;;9.80;99.90;;;;;;5068131;28;20402;-64
2021/05/02 01:27:53;;;;;;;7.60;4.88;;;9.90;99.90;;;;;;5068114;28;20020;-64
2021/05/02 01:30:20;;;;;;;6.13;5.25;;;9.90;99.90;;;;;;5067185;28;20020;-64
2021/05/02 01:32:45;;;;;;;8.45;5.80;;;9.90;99.90;;;;;;5066426;28;20384;-64
2021/05/02 01:35:12;;;;;;;6.80;5.60;;;9.80;99.90;;;;;;5067428;28;20023;-64
2021/05/02 01:37:38;;;;;;;7.57;5.95;;;9.80;99.90;;;;;;5067525;28;20097;-64
2021/05/02 01:40:04;;;;;;;6.72;5.45;;;9.80;99.90;;;;;;5067676;28;20825;-64
2021/05/02 01:42:30;;;;;;;7.78;5.70;;;9.80;99.90;;;;;;5067330;28;20071;-64
2021/05/02 01:44:56;;;;;;;6.75;5.03;;;9.80;99.90;;;;;;5067611;28;20052;-64
2021/05/02 01:47:22;;;;;;;8.02;6.15;;;9.80;99.90;;;;;;5068027;28;20487;-64
2021/05/02 01:49:55;;;;;;;6.30;5.30;;;9.80;99.90;;;;;;5065782;28;20516;-64
2021/05/02 01:52:22;;;;;;;5.70;5.03;;;9.70;99.90;;;;;;5067742;28;20021;-64
2021/05/02 01:54:49;;;;;;;6.13;4.85;;;9.80;99.90;;;;;;5067202;28;20043;-64
2021/05/02 01:57:21;;;;;;;6.30;5.25;;;9.70;99.90;;;;;;5067398;28;20491;-64
2021/05/02 01:59:48;;;;;;;6.82;5.40;;;9.60;99.90;;;;;;5067285;28;20404;-64
2021/05/02 02:02:16;;;;;;;7.93;5.95;;;9.60;99.90;;;;;;5067022;28;20032;-64
2021/05/02 02:04:45;;;;;;;7.57;5.82;;;9.60;99.90;;;;;;5066523;28;20663;-64
2021/05/02 02:07:13;;;;;;;6.25;5.03;;;9.50;99.90;;;;;;5067085;28;20032;-64
2021/05/02 02:09:40;;;;;;;6.28;4.72;;;9.50;99.90;;;;;;5066937;28;20066;-64
2021/05/02 02:12:07;;;;;;;5.18;4.28;;;9.40;99.90;;;;;;5066585;28;20021;-64
2021/05/02 02:14:35;;;;;;;5.18;4.32;;;9.40;99.90;;;;;;5066532;28;20590;-64
2021/05/02 02:17:02;;;;;;;4.85;3.95;;;9.40;99.90;;;;;;5066964;28;20020;-64
2021/05/02 02:19:28;;;;;;;5.10;4.38;;;9.30;99.90;;;;;;5066497;28;20432;-64
2021/05/02 02:21:57;;;;;;;4.90;4.18;;;9.40;99.90;;;;;;5066745;28;20111;-64
2021/05/02 02:24:52;;;;;;;6.13;4.03;;;9.40;99.90;;;;;;5066518;28;20020;-64
2021/05/02 02:27:20;;;;;;;5.72;4.43;;;9.40;99.90;;;;;;5066547;28;20042;-64
2021/05/02 02:29:48;;;;;;;6.47;4.68;;;9.30;99.90;;;;;;5066782;28;20020;-64
2021/05/02 02:32:16;;;;;;;7.32;5.45;;;9.30;99.90;;;;;;5066658;28;20016;-64
2021/05/02 02:34:47;;;;;;;6.95;4.75;;;9.30;99.90;;;;;;5066273;28;20383;-64
2021/05/02 02:37:17;;;;;;;6.93;4.75;;;9.40;99.90;;;;;;5066827;28;20429;-64
2021/05/02 02:39:51;;;;;;;6.75;5.25;;;9.40;99.90;;;;;;5066314;28;20122;-64
2021/05/02 02:42:18;;;;;;;5.65;4.95;;;9.40;99.90;;;;;;5066419;28;20032;-64
2021/05/02 02:44:58;;;;;;;6.20;4.72;;;9.40;99.90;;;;;;5065176;28;20379;-64
2021/05/02 02:47:56;;;;;;;7.47;4.68;;;9.50;99.90;;;;;;5066166;28;20024;-64
2021/05/02 02:50:22;;;;;;;5.93;4.90;;;9.50;99.90;;;;;;5066776;28;20111;-64
2021/05/02 02:52:50;;;;;;;7.15;5.55;;;9.50;99.90;;;;;;5066717;28;20808;-64
2021/05/02 02:55:18;;;;;;;7.93;5.93;;;9.50;99.90;;;;;;5065661;28;20056;-64
2021/05/02 02:57:53;;;;;;;9.30;6.40;;;9.50;99.90;;;;;;5066559;28;20589;-64
2021/05/02 03:00:22;;;;;;;12.88;7.88;;;9.60;99.90;;;;;;5066255;28;20115;-64
2021/05/02 03:02:56;;;;;;;10.50;7.25;;;9.60;99.90;;;;;;5063582;28;20060;-64
2021/05/02 03:05:25;;;;;;;8.15;6.15;;;9.70;99.90;;;;;;5066717;28;20043;-64
2021/05/02 03:07:52;;;;;;;7.78;5.80;;;9.60;99.90;;;;;;5061395;28;20029;-64
2021/05/02 03:10:19;;;;;;;6.97;5.38;;;9.60;99.90;;;;;;5045421;28;20124;-64
2021/05/02 03:12:47;;;;;;;6.68;5.25;;;9.50;99.90;;;;;;5046149;28;20029;-64
2021/05/02 03:15:13;;;;;;;5.82;4.38;;;9.40;99.90;;;;;;5046213;28;20709;-64
2021/05/02 03:17:42;;;;;;;4.82;3.95;;;9.40;99.90;;;;;;5045871;28;20029;-64
2021/05/02 03:20:15;;;;;;;4.70;3.90;;;9.40;99.90;;;;;;5045459;28;20029;-64
2021/05/02 03:22:59;;;;;;;3.88;3.45;;;9.30;99.90;;;;;;5046375;28;20043;-64
2021/05/02 03:25:31;;;;;;;4.00;3.35;;;9.30;99.90;;;;;;5046259;28;20116;-64
2021/05/02 03:28:04;;;;;;;3.88;3.47;;;9.20;99.90;;;;;;5046347;28;20017;-64
2021/05/02 03:30:30;;;;;;;5.43;4.25;;;9.20;99.90;;;;;;5045903;28;20077;-64
2021/05/02 03:32:57;;;;;;;5.10;4.07;;;9.10;99.90;;;;;;5044819;28;20056;-64
2021/05/02 03:35:27;;;;;;;4.82;4.05;;;9.00;99.90;;;;;;5051099;28;20669;-64
2021/05/02 03:38:16;;;;;;;5.07;3.70;;;9.10;99.90;;;;;;5066695;28;20564;-64
2021/05/02 03:40:43;;;;;;;4.95;4.20;;;9.10;99.90;;;;;;5057103;28;20049;-64
2021/05/02 03:43:09;;;;;;;6.32;4.05;;;9.00;99.90;;;;;;5066119;28;20029;-64
2021/05/02 03:45:34;;;;;;;5.47;4.03;;;9.00;99.90;;;;;;5065802;28;20032;-64
2021/05/02 03:48:00;;;;;;;6.43;4.95;;;9.00;99.90;;;;;;5065891;28;20028;-64
2021/05/02 03:50:26;;;;;;;9.50;5.72;;;9.10;99.90;;;;;;5065785;28;20063;-65
2021/05/02 03:52:52;;;;;;;6.75;4.68;;;9.10;99.90;;;;;;5066650;28;20023;-64
2021/05/02 03:55:17;;;;;;;11.45;6.25;;;9.10;99.90;;;;;;5068864;28;20037;-64
2021/05/02 03:57:43;;;;;;;18.08;10.85;;;9.30;99.90;;;;;;5069685;28;21132;-64
2021/05/02 04:00:09;;;;;;;15.88;9.40;;;9.20;99.90;;;;;;5069673;28;20090;-64
2021/05/02 04:02:35;;;;;;;11.90;7.43;;;9.20;99.90;;;;;;5069318;28;20021;-64
2021/05/02 04:05:01;;;;;;;8.40;6.13;;;9.10;99.90;;;;;;5069300;28;20531;-64
2021/05/02 04:07:26;;;;;;;8.45;5.72;;;9.10;99.90;;;;;;5069444;28;20021;-64
2021/05/02 04:09:52;;;;;;;7.03;4.68;;;9.10;99.90;;;;;;5070061;28;20032;-64
2021/05/02 04:12:18;;;;;;;6.25;5.15;;;9.30;99.90;;;;;;5068805;28;20528;-64
2021/05/02 04:14:43;;;;;;;5.60;4.57;;;9.30;99.90;;;;;;5069136;28;20509;-64
2021/05/02 04:17:11;;;;;;;5.95;4.68;;;9.30;99.90;;;;;;5069560;28;20360;-64
2021/05/02 04:19:39;;;;;;;5.50;4.03;;;9.20;99.90;;;;;;5067424;28;20028;-64
2021/05/02 04:22:07;;;;;;;7.72;5.28;;;9.10;99.90;;;;;;5069038;28;20025;-64
2021/05/02 04:24:32;;;;;;;7.45;5.60;;;9.10;99.90;;;;;;5069096;28;20033;-64
2021/05/02 04:27:00;;;;;;;9.73;6.57;;;9.20;99.90;;;;;;5069142;28;20399;-64
2021/05/02 04:29:30;;;;;;;11.00;7.25;;;9.20;99.90;;;;;;5068891;28;20016;-64
2021/05/02 04:31:56;;;;;;;7.68;6.05;;;9.30;99.90;;;;;;5069258;28;20021;-64
2021/05/02 04:34:23;;;;;;;9.07;6.78;;;9.30;99.90;;;;;;5069493;28;20027;-64
2021/05/02 04:36:50;;;;;;;6.90;5.63;;;9.20;99.90;;;;;;5069835;28;20066;-64
2021/05/02 04:39:18;;;;;;;7.97;6.03;;;9.20;99.90;;;;;;5068913;28;20044;-64
2021/05/02 04:41:44;;;;;;;7.38;5.22;;;9.20;99.90;;;;;;5068822;28;20687;-64
2021/05/02 04:44:10;;;;;;;6.72;5.03;;;9.20;99.90;;;;;;5068733;28;20501;-64
2021/05/02 04:46:40;;;;;;;6.55;4.88;;;9.20;99.90;;;;;;5068805;28;20078;-64
2021/05/02 04:49:09;;;;;;;6.72;5.30;;;9.10;99.90;;;;;;5068586;28;20095;-64
2021/05/02 04:51:36;;;;;;;6.95;5.10;;;9.20;99.90;;;;;;5068499;28;20079;-64
2021/05/02 04:54:03;;;;;;;7.57;5.93;;;9.30;99.90;;;;;;5068733;28;20025;-64
2021/05/02 04:56:29;;;;;;;7.00;5.00;;;9.30;99.90;;;;;;5068456;28;20543;-64
2021/05/02 04:58:55;;;;;;;6.97;5.22;;;9.20;99.90;;;;;;5068494;28;20103;-64
2021/05/02 05:01:22;;;;;;;7.43;5.47;;;9.20;99.90;;;;;;5057381;28;20107;-64
2021/05/02 05:03:47;;;;;;;5.97;5.00;;;9.20;99.90;;;;;;5048633;28;20029;-64
2021/05/02 05:06:13;;;;;;;6.18;4.80;;;9.20;99.90;;;;;;5057863;28;20028;-64
2021/05/02 05:08:39;;;;;;;6.40;4.60;;;9.30;99.90;;;;;;5067979;28;20028;-64
2021/05/02 05:11:05;;;;;;;4.85;4.20;;;9.20;99.90;;;;;;5068227;28;20502;-64
2021/05/02 05:13:31;;;;;;;5.82;4.28;;;9.20;99.90;;;;;;5067736;28;20034;-64
2021/05/02 05:15:58;;;;;;;6.03;3.63;;;9.20;99.90;;;;;;5067717;28;20530;-64
2021/05/02 05:18:24;;;;;;;4.45;3.58;;;9.10;99.90;;;;;;5067273;28;20059;-64
2021/05/02 05:20:51;;;;;;;5.28;3.50;;;9.10;99.90;;;;;;5068037;28;20561;-64
2021/05/02 05:23:18;;;;;;;3.75;3.20;;;9.10;99.90;;;;;;5068041;28;20116;-64
2021/05/02 05:25:44;;;;;;;4.65;3.40;;;9.10;99.90;;;;;;5067656;28;20035;-64
2021/05/02 05:28:10;;;;;;;6.20;4.28;;;9.00;99.90;;;;;;5067863;28;20020;-64
2021/05/02 05:30:36;;;;;;;5.05;3.80;;;9.00;99.90;;;;;;5068267;28;20027;-64
2021/05/02 05:33:07;;;;;;;5.45;4.25;;;9.00;99.90;;;;;;5067749;28;20020;-63
2021/05/02 05:35:34;;;;;;;5.30;4.18;;;9.00;99.90;;;;;;5067818;28;20016;-63
2021/05/02 05:38:00;;;;;;;3.85;3.50;;;9.10;99.90;;;;;;5067097;28;20179;-64
2021/05/02 05:40:27;;;;;;;4.65;3.70;;;9.10;99.90;;;;;;5067351;28;20024;-63
2021/05/02 05:42:53;;;;;;;3.50;3.20;;;9.00;99.90;;;;;;5067658;28;20043;-64
2021/05/02 05:45:20;;;;;;;4.20;3.60;;;9.00;99.90;;;;;;5067428;28;20041;-63
2021/05/02 05:47:51;;;;;;;4.32;3.67;;;9.10;99.90;;;;;;5067603;28;20116;-63
2021/05/02 05:50:18;;;;;;;4.60;3.20;;;9.10;99.90;;;;;;5067912;28;20066;-64
2021/05/02 05:52:47;;;;;;;3.70;3.10;;;9.10;99.90;;;;;;5059775;28;20115;-64
2021/05/02 05:55:14;;;;;;;4.55;3.83;;;9.20;99.90;;;;;;5048614;28;20024;-64
2021/05/02 05:57:40;;;;;;;4.32;3.30;;;9.10;99.90;;;;;;5048758;28;20040;-64
2021/05/02 06:00:09;;;;;;;4.25;3.33;;;9.10;99.90;;;;;;5056447;28;20032;-64
2021/05/02 06:02:35;;;;;;;3.75;3.35;;;9.20;99.90;;;;;;5067753;28;20052;-63
2021/05/02 06:05:02;;;;;;;5.00;3.70;;;9.20;99.90;;;;;;5067254;28;20390;-64
2021/05/02 06:07:28;;;;;;;5.88;4.32;;;9.30;99.90;;;;;;5067260;28;20017;-65
2021/05/02 06:09:53;;;;;;;4.65;4.13;;;9.40;99.90;;;;;;5067116;28;20042;-64
2021/05/02 06:12:20;;;;;;;4.78;3.92;;;9.50;99.90;;;;;;5066808;28;20025;-63
2021/05/02 06:14:46;;;;;;;4.28;3.55;;;9.40;99.90;;;;;;5067183;28;20031;-63
2021/05/02 06:17:12;;;;;;;5.97;5.10;;;9.40;99.90;;;;;;5066115;28;20026;-63
2021/05/02 06:19:38;;;;;;;5.28;4.28;;;9.30;99.90;;;;;;5067100;28;20054;-64
2021/05/02 06:22:04;;;;;;;6.90;4.30;;;9.20;99.90;;;;;;5067534;28;20094;-64
2021/05/02 06:24:30;;;;;;;4.78;4.25;;;9.30;99.90;;;;;;5066973;28;20482;-64
2021/05/02 06:26:56;;;;;;;5.65;4.65;;;9.40;99.90;;;;;;5066985;28;20048;-64
2021/05/02 06:29:22;;;;;;;4.88;4.15;;;9.40;99.90;;;;;;5066437;28;20083;-64
2021/05/02 06:31:48;;;;;;;4.80;4.30;;;9.30;99.90;;;;;;5066877;28;20481;-64
2021/05/02 06:34:14;;;;;;;6.45;4.72;;;9.40;99.90;;;;;;5066842;28;20406;-64
2021/05/02 06:36:41;;;;;;;5.60;3.85;;;9.40;99.90;;;;;;5065268;28;20059;-64
2021/05/02 06:39:08;;;;;;;4.88;3.75;;;9.50;99.90;;;;;;5067722;28;20025;-66
2021/05/02 06:41:34;;;;;;;3.80;3.40;;;9.40;99.90;;;;;;5066996;28;20501;-67
2021/05/02 06:44:01;;;;;;;5.82;4.18;;;9.40;99.90;;;;;;5066724;28;20021;-65
2021/05/02 06:46:28;;;;;;;6.00;4.30;;;9.40;99.90;;;;;;5066155;28;20044;-65
2021/05/02 06:48:59;;;;;;;5.18;4.15;;;9.40;99.90;;;;;;5066123;28;20028;-66
2021/05/02 06:51:26;;;;;;;5.50;4.18;;;9.40;99.90;;;;;;5066374;28;20020;-66
2021/05/02 06:53:52;;;;;;;6.15;4.82;;;9.50;99.90;;;;;;5066465;28;20029;-66
2021/05/02 06:56:19;;;;;;;9.30;5.43;;;9.50;99.90;;;;;;5066425;28;20033;-66
2021/05/02 06:58:47;;;;;;;7.65;5.28;;;9.50;99.90;;;;;;5066452;28;20063;-67
2021/05/02 07:01:12;;;;;;;7.32;5.43;;;9.50;99.90;;;;;;5051974;28;20040;-67
2021/05/02 07:03:38;;;;;;;8.88;5.22;;;9.60;99.90;;;;;;5046416;28;20454;-67
2021/05/02 07:06:04;;;;;;;6.40;5.30;;;9.60;99.90;;;;;;5062337;28;20040;-67
2021/05/02 07:08:31;;;;;;;6.03;5.25;;;9.60;99.90;;;;;;5065697;28;20024;-67
2021/05/02 07:10:57;;;;;;;5.47;4.88;;;9.60;99.90;;;;;;5065410;28;20038;-67
2021/05/02 07:13:24;;;;;;;5.05;4.35;;;9.70;99.90;;;;;;5066136;28;20044;-67
2021/05/02 07:15:50;;;;;;;5.80;4.80;;;9.70;99.90;;;;;;5065832;28;20708;-67
2021/05/02 07:18:16;;;;;;;6.68;4.85;;;9.80;99.90;;;;;;5065966;28;20036;-67
2021/05/02 07:20:43;;;;;;;5.70;4.72;;;9.70;99.90;;;;;;5066068;28;20416;-66
2021/05/02 07:23:09;;;;;;;6.50;5.18;;;9.80;99.90;;;;;;5066263;28;20104;-67
2021/05/02 07:25:35;;;;;;;7.65;4.80;;;9.80;99.90;;;;;;5066038;28;20032;-66
2021/05/02 07:28:00;;;;;;;5.82;4.78;;;9.90;99.90;;;;;;5065783;28;20149;-67
2021/05/02 07:30:27;;;;;;;6.68;5.15;;;9.80;99.90;;;;;;5069275;28;20099;-67
2021/05/02 07:32:52;;;;;;;7.75;4.50;;;9.90;99.90;;;;;;5069781;28;20024;-67
2021/05/02 07:35:18;;;;;;;7.55;5.32;;;9.80;99.90;;;;;;5070046;28;20020;-66
2021/05/02 07:37:44;;;;;;;6.97;5.50;;;9.80;99.90;;;;;;5069164;28;20036;-67
2021/05/02 07:40:11;;;;;;;7.10;5.13;;;9.90;99.90;;;;;;5070059;28;20028;-67
2021/05/02 07:42:37;;;;;;;7.05;5.20;;;9.90;99.90;;;;;;5069925;28;20823;-67
2021/05/02 07:45:04;;;;;;;5.72;4.68;;;9.80;99.90;;;;;;5069907;28;20025;-67
2021/05/02 07:47:29;;;;;;;7.00;5.63;;;9.90;99.90;;;;;;5069392;28;20024;-67
2021/05/02 07:49:56;;;;;;;6.50;4.82;;;9.90;99.90;;;;;;5056973;28;20025;-68
2021/05/02 07:52:22;;;;;;;6.65;5.40;;;9.80;99.90;;;;;;5058642;28;20016;-67
2021/05/02 07:54:48;;;;;;;7.07;5.15;;;9.90;99.90;;;;;;5062091;28;20037;-67
2021/05/02 07:57:13;;;;;;;6.43;5.03;;;9.90;99.90;;;;;;5058751;28;20029;-67
2021/05/02 07:59:39;;;;;;;7.22;4.97;;;9.90;99.90;;;;;;5054439;28;20550;-67
2021/05/02 08:02:09;;;;;;;5.97;4.28;;;10.00;99.90;;;;;;5069263;28;20448;-66
2021/05/02 08:04:38;;;;;;;5.40;4.30;;;10.00;99.90;;;;;;5070527;28;20024;-67
2021/05/02 08:07:08;;;;;;;5.38;4.53;;;9.90;99.90;;;;;;5070177;28;20023;-68
2021/05/02 08:09:35;;;;;;;5.13;4.28;;;10.00;99.90;;;;;;5070428;28;20501;-67
2021/05/02 08:12:01;;;;;;;5.05;3.92;;;10.00;99.90;;;;;;5068948;28;20032;-67
2021/05/02 08:14:28;;;;;;;5.35;3.97;;;10.00;99.90;;;;;;5070039;28;20034;-67
2021/05/02 08:16:55;;;;;;;4.68;3.55;;;10.20;99.90;;;;;;5069096;28;20020;-67
2021/05/02 08:19:21;;;;;;;5.53;4.43;;;10.10;99.90;;;;;;5069625;28;20044;-66
2021/05/02 08:21:47;;;;;;;5.05;3.92;;;10.10;99.90;;;;;;5068358;28;20758;-66
2021/05/02 08:24:13;;;;;;;5.15;3.78;;;10.10;99.90;;;;;;5068781;28;20024;-66
2021/05/02 08:26:39;;;;;;;6.25;4.85;;;10.20;99.90;;;;;;5069445;28;20033;-66
2021/05/02 08:29:05;;;;;;;4.60;4.20;;;10.00;99.90;;;;;;5070307;28;20071;-66
2021/05/02 08:31:31;;;;;;;4.43;3.90;;;10.00;99.90;;;;;;5069501;28;20024;-66
2021/05/02 08:33:57;;;;;;;4.05;3.50;;;10.10;99.90;;;;;;5069405;28;20127;-66
2021/05/02 08:36:23;;;;;;;5.45;3.60;;;10.10;99.90;;;;;;5068882;28;20028;-66
2021/05/02 08:38:49;;;;;;;4.80;4.20;;;10.20;99.90;;;;;;5069698;28;20027;-66
2021/05/02 08:41:15;;;;;;;4.10;3.70;;;10.20;99.90;;;;;;5069393;28;20078;-66
2021/05/02 08:43:41;;;;;;;11.07;6.90;;;10.00;99.90;;;;;;5068951;28;20060;-66
2021/05/02 08:46:11;;;;;;;10.32;6.15;;;10.10;99.90;;;;;;5069869;28;20024;-66
2021/05/02 08:48:37;;;;;;;7.50;5.43;;;10.20;99.90;;;;;;5070218;28;20055;-66
2021/05/02 08:51:03;;;;;;;7.18;5.55;;;10.10;99.90;;;;;;5070407;28;20056;-66
2021/05/02 08:53:30;;;;;;;6.50;4.85;;;10.10;99.90;;;;;;5066526;28;20074;-66
2021/05/02 08:56:00;;;;;;;6.60;4.50;;;10.00;99.90;;;;;;5068407;28;20338;-66
2021/05/02 08:58:25;;;;;;;5.10;4.35;;;10.20;99.90;;;;;;5068015;28;20032;-67
2021/05/02 09:00:56;;;;;;;4.57;3.70;;;10.40;99.90;;;;;;5049787;28;20032;-66
2021/05/02 09:03:36;;;;;;;4.50;3.63;;;10.50;99.90;;;;;;5064950;28;20395;-66
2021/05/02 09:06:14;;;;;;;3.63;3.30;;;10.40;99.90;;;;;;5068135;28;20032;-66
2021/05/02 09:08:39;;;;;;;7.72;3.72;;;10.40;99.90;;;;;;5066548;28;20584;-66
2021/05/02 09:11:05;;;;;;;3.33;3.03;;;10.50;99.90;;;;;;5068650;28;20120;-66
2021/05/02 09:13:31;;;;;;;3.50;3.20;;;10.40;99.90;;;;;;5065925;28;20712;-66
2021/05/02 09:16:02;;;;;;;3.47;3.17;;;10.60;99.90;;;;;;5064714;28;20182;-66
2021/05/02 09:18:37;;;;;;;4.53;3.33;;;10.50;99.90;;;;;;5067154;28;20395;-66
2021/05/02 09:21:06;;;;;;;3.83;3.45;;;10.60;99.90;;;;;;5067982;28;20032;-66
2021/05/02 09:23:39;;;;;;;3.47;3.17;;;10.70;99.90;;;;;;5066998;28;20024;-66
2021/05/02 09:26:05;;;;;;;3.42;3.15;;;10.80;99.90;;;;;;5067360;28;20029;-66
2021/05/02 09:28:49;;;;;;;3.30;2.90;;;10.90;99.90;;;;;;5066749;28;20027;-65
2021/05/02 09:31:21;;;;;;;3.85;2.90;;;10.90;99.90;;;;;;5067254;28;20039;-65
2021/05/02 09:33:47;;;;;;;3.80;3.45;;;10.90;99.90;;;;;;5067369;28;20032;-66
2021/05/02 09:36:16;;;;;;;3.67;3.30;;;10.90;99.90;;;;;;5067266;28;20091;-65
2021/05/02 09:38:43;;;;;;;4.57;3.38;;;11.00;99.90;;;;;;5052039;28;20037;-66
2021/05/02 09:41:12;;;;;;;3.42;3.13;;;10.90;99.90;;;;;;5046957;28;20519;-66
2021/05/02 09:43:48;;;;;;;3.97;3.58;;;10.70;99.90;;;;;;5055062;28;20048;-66
2021/05/02 09:46:40;;;;;;;5.30;3.63;;;10.80;99.90;;;;;;5067102;28;20120;-65
2021/05/02 09:49:09;;;;;;;3.40;3.10;;;10.70;99.90;;;;;;5067377;28;20031;-65
2021/05/02 09:51:38;;;;;;;4.40;3.88;;;10.80;99.90;;;;;;5066426;28;20089;-65
2021/05/02 09:54:17;;;;;;;4.82;4.05;;;10.90;99.90;;;;;;5067678;28;20067;-66
2021/05/02 09:56:50;;;;;;;4.50;3.70;;;11.10;99.90;;;;;;5064560;28;20047;-66
2021/05/02 09:59:27;;;;;;;4.35;3.95;;;11.20;99.90;;;;;;5067233;28;20031;-66
2021/05/02 10:02:10;;;;;;;7.20;3.60;;;11.20;99.90;;;;;;5065813;28;20127;-66
2021/05/02 10:04:51;;;;;;;4.68;3.42;;;10.90;99.90;;;;;;5068307;28;20025;-66
2021/05/02 10:07:19;;;;;;;5.68;4.40;;;11.10;99.90;;;;;;5068045;28;20032;-66
2021/05/02 10:09:46;;;;;;;4.40;3.65;;;11.00;99.90;;;;;;5067404;28;20040;-66
2021/05/02 10:12:13;;;;;;;4.60;3.92;;;11.10;99.90;;;;;;5067540;28;20030;-65
2021/05/02 10:14:40;;;;;;;3.78;3.20;;;11.20;99.90;;;;;;5065847;28;20138;-66
2021/05/02 10:17:07;;;;;;;3.30;3.00;;;11.30;99.90;;;;;;5062770;28;20039;-66
2021/05/02 10:19:32;;;;;;;6.00;4.43;;;11.30;99.90;;;;;;5055298;28;20031;-65
2021/05/02 10:21:59;;;;;;;5.13;4.53;;;11.10;99.90;;;;;;5054588;28;20032;-65
2021/05/02 10:24:25;;;;;;;4.65;3.50;;;11.10;99.90;;;;;;5057602;28;20033;-65
2021/05/02 10:26:53;;;;;;;3.35;3.00;;;11.20;99.90;;;;;;5067474;28;20536;-65
2021/05/02 10:29:39;;;;;;;4.13;2.97;;;11.40;99.90;;;;;;5067708;28;20028;-66
2021/05/02 10:32:13;;;;;;;4.25;3.25;;;11.40;99.90;;;;;;5068241;28;20020;-66
2021/05/02 10:34:48;;;;;;;4.07;3.10;;;11.40;99.90;;;;;;5067251;28;20040;-66
2021/05/02 10:37:23;;;;;;;5.28;3.80;;;11.50;99.90;;;;;;5067720;28;20029;-65
2021/05/02 10:40:06;;;;;;;5.30;3.80;;;11.40;99.90;;;;;;5067390;28;20028;-65
2021/05/02 10:42:49;;;;;;;5.78;4.53;;;11.60;99.90;;;;;;5067019;28;20040;-65
2021/05/02 10:45:30;;;;;;;6.13;4.77;;;11.60;99.90;;;;;;5060533;28;20120;-65
2021/05/02 10:48:00;;;;;;;4.78;3.60;;;11.80;99.90;;;;;;5067561;28;20380;-65
2021/05/02 10:50:33;;;;;;;4.25;3.05;;;12.00;99.90;;;;;;5066065;28;20029;-65
2021/05/02 10:53:13;;;;;;;3.42;3.10;;;12.30;99.90;;;;;;5067015;28;20115;-65
2021/05/02 10:56:03;;;;;;;4.32;3.80;;;12.40;99.90;;;;;;5067172;28;20098;-66
2021/05/02 10:58:29;;;;;;;3.85;3.45;;;12.20;99.90;;;;;;5066946;28;20396;-65
2021/05/02 11:01:03;;;;;;;3.85;3.22;;;12.30;99.90;;;;;;5066550;28;20043;-65
2021/05/02 11:03:38;;;;;;;3.22;2.92;;;12.40;99.90;;;;;;5061767;28;20082;-66
2021/05/02 11:06:05;;;;;;;3.85;3.25;;;12.50;99.90;;;;;;5066824;28;20070;-65
2021/05/02 11:08:50;;;;;;;5.63;4.20;;;12.60;99.90;;;;;;5067064;28;20121;-66
2021/05/02 11:11:34;;;;;;;4.65;3.47;;;12.50;99.90;;;;;;5065561;28;20037;-65
2021/05/02 11:16:44;;;;;;;4.50;3.67;;;12.90;99.90;;;;;;5067640;28;20036;-66
2021/05/02 11:19:35;;;;;;;3.22;2.92;;;13.00;99.90;;;;;;5067017;28;20051;-65
2021/05/02 11:22:10;;;;;;;4.55;3.08;;;13.00;99.90;;;;;;5066611;28;20062;-64
2021/05/02 11:24:49;;;;;;;4.05;2.63;;;13.10;99.90;;;;;;5066419;28;20111;-65
2021/05/02 11:27:49;;;;;;;6.10;4.18;;;13.40;99.90;;;;;;5066877;28;20513;-65
2021/05/02 11:30:17;;;;;;;4.80;3.60;;;13.30;99.90;;;;;;5060485;28;20032;-65
2021/05/02 11:32:44;;;;;;;8.23;5.18;;;13.40;99.90;;;;;;5066230;28;20044;-74
2021/05/02 11:35:15;;;;;;;6.50;4.25;;;12.80;99.90;;;;;;5066802;28;20111;-67
2021/05/02 11:37:52;;;;;;;6.13;4.43;;;11.90;99.90;;;;;;5066684;28;20040;-69
2021/05/02 11:40:30;;;;;;;7.47;5.03;;;11.50;99.90;;;;;;5066691;28;20028;-72
2021/05/02 11:43:16;;;;;;;5.60;4.18;;;11.30;99.90;;;;;;5065861;28;20036;-67
2021/05/02 11:45:44;;;;;;;7.30;4.00;;;11.00;99.90;;;;;;5066071;28;20024;-65
2021/05/02 11:48:18;;;;;;;5.53;3.88;;;10.90;99.90;;;;;;5066385;28;20439;-63
2021/05/02 11:50:45;;;;;;;3.63;2.70;;;10.90;99.90;;;;;;5065259;28;20100;-72
2021/05/02 11:53:11;;;;;;;5.43;3.65;;;10.90;99.90;;;;;;5064827;28;20090;-70
2021/05/02 11:55:40;;;;;;;3.22;2.40;;;10.90;99.90;;;;;;5066874;28;20109;-71
2021/05/02 11:58:14;;;;;;;3.65;2.70;;;11.10;99.90;;;;;;5067238;28;20186;-72
2021/05/02 12:00:41;;;;;;;;;;;11.00;99.90;;;;;;5066183;28;20199;-71
2021/05/02 12:03:09;;;;;;;2.33;1.98;;;11.10;99.90;;;;;;5063423;28;19909;-68
2021/05/02 12:05:53;;;;;;;1.58;1.35;;;11.20;99.90;;;;;;5061807;28;20028;-68
2021/05/02 12:08:22;;;;;;;2.05;1.17;;;11.40;99.90;;;;;;5066279;28;20021;-68
2021/05/02 12:10:59;;;;;;;1.23;1.13;;;11.50;99.90;;;;;;5065222;28;20395;-69
2021/05/02 12:13:37;;;;;;;1.10;1.00;;;11.70;99.90;;;;;;5065910;28;20083;-69
2021/05/02 12:16:08;;;;;;;3.38;2.55;;;12.00;99.90;;;;;;5068163;28;20028;-68
2021/05/02 12:18:51;;;;;;;3.10;2.45;;;12.30;99.90;;;;;;5070229;28;20074;-73
2021/05/02 12:21:36;;;;;;;2.42;2.20;;;12.40;99.90;;;;;;5069012;28;20059;-67
2021/05/02 12:24:11;;;;;;;3.17;2.67;;;12.60;99.90;;;;;;5069283;28;20647;-67
2021/05/02 12:26:44;;;;;;;4.10;2.55;;;13.00;99.90;;;;;;5069968;28;20510;-67
2021/05/02 12:29:18;;;;;;;2.88;2.30;;;13.20;99.90;;;;;;5069059;28;20056;-67
2021/05/02 12:31:53;;;;;;;3.47;2.85;;;13.60;99.90;;;;;;5069041;28;20030;-65
2021/05/02 12:34:22;;;;;;;5.93;3.75;;;14.00;99.90;;;;;;5069599;28;20383;-70
2021/05/02 12:36:49;;;;;;;4.32;3.13;;;14.00;99.90;;;;;;5059920;28;20025;-67
2021/05/02 12:39:15;;;;;;;5.72;3.70;;;14.30;99.90;;;;;;5066756;28;20371;-68
2021/05/02 12:41:42;;;;;;;5.55;4.00;;;14.50;99.90;;;;;;5069080;28;20028;-67
2021/05/02 12:44:16;;;;;;;4.85;3.50;;;14.40;99.90;;;;;;5066161;28;20028;-69
2021/05/02 12:46:44;;;;;;;9.20;4.43;;;14.50;99.90;;;;;;5068817;28;20024;-74
2021/05/02 12:49:16;;;;;;;7.93;4.80;;;14.10;99.90;;;;;;5069398;28;20516;-67
2021/05/02 12:51:46;;;;;;;8.95;5.07;;;13.70;99.90;;;;;;5065670;28;20020;-67
2021/05/02 12:54:14;;;;;;;4.53;3.50;;;13.50;99.90;;;;;;5067570;28;20029;-67
2021/05/02 12:56:42;;;;;;;5.15;3.40;;;14.10;99.90;;;;;;5066674;28;20029;-68
2021/05/02 12:59:33;;;;;;;5.80;3.05;;;14.00;99.90;;;;;;5068308;28;20103;-67
2021/05/02 13:02:09;;;;;;;4.72;2.47;;;14.50;99.90;;;;;;5067921;28;20039;-65
2021/05/02 13:04:45;;;;;;;3.00;2.20;;;14.80;99.90;;;;;;5060848;28;20307;-66
2021/05/02 13:07:12;;;;;;;2.53;1.80;;;15.00;99.90;;;;;;5048560;28;20032;-66